createdAt,value
2017-09-20T19:53:34.293Z,73.44
2017-09-20T19:54:43.449Z,73.44
2017-09-20T19:55:52.997Z,73.05
2017-09-20T19:57:01.883Z,73.54
2017-09-20T19:58:10.718Z,73.44
2017-09-20T19:59:19.557Z,73.63
2017-09-20T20:00:28.393Z,73.54
2017-09-20T20:01:37.560Z,73.72
2017-09-20T20:02:46.390Z,73.63
2017-09-20T20:03:55.378Z,73.63
2017-09-20T20:05:04.910Z,73.63
2017-09-20T20:06:13.799Z,73.44
2017-09-20T20:07:22.634Z,74.01
2017-09-20T20:08:31.512Z,74.11
2017-09-20T20:09:40.422Z,74.01
2017-09-20T20:10:49.256Z,73.82
2017-09-20T20:11:58.088Z,73.91
2017-09-20T20:13:06.928Z,73.91
2017-09-20T20:14:15.770Z,74.11
2017-09-20T20:15:24.604Z,74.3
2017-09-20T20:16:33.675Z,73.91
2017-09-20T20:17:42.906Z,74.01
2017-09-20T20:18:51.780Z,74.11
2017-09-20T20:20:00.617Z,74.3
2017-09-20T20:21:09.850Z,74.58
2017-09-20T20:22:18.701Z,74.58
2017-09-20T20:23:27.994Z,74.4
2017-09-20T20:24:37.192Z,74.4
2017-09-20T20:25:46.030Z,74.58
2017-09-20T20:26:55.238Z,74.4
2017-09-20T20:28:04.231Z,74.2
2017-09-20T20:29:13.109Z,74.3
2017-09-20T20:30:21.947Z,74.3
2017-09-20T20:31:30.786Z,74.4
2017-09-20T20:32:39.783Z,74.4
2017-09-20T20:33:48.619Z,74.11
2017-09-20T20:34:57.458Z,74.49
2017-09-20T20:36:06.298Z,74.68
2017-09-20T20:37:15.351Z,74.3
2017-09-20T20:38:24.650Z,74.68
2017-09-20T20:39:33.599Z,74.2
2017-09-20T20:40:42.536Z,74.3
2017-09-20T20:41:51.374Z,74.2
2017-09-20T20:43:00.209Z,74.87
2017-09-20T20:44:09.047Z,74.58
2017-09-20T20:45:17.957Z,74.3
2017-09-20T20:46:26.798Z,74.3
2017-09-20T20:47:35.636Z,74.3
2017-09-20T20:48:44.753Z,74.49
2017-09-20T20:49:53.591Z,74.58
2017-09-20T20:51:02.419Z,74.3
2017-09-20T20:52:11.313Z,74.87
2017-09-20T20:53:20.440Z,74.2
2017-09-20T20:54:29.273Z,74.49
2017-09-20T20:55:38.111Z,74.2
2017-09-20T20:56:47.159Z,74.3
2017-09-20T20:57:55.991Z,74.68
2017-09-20T20:59:04.832Z,74.3
2017-09-20T21:00:13.669Z,74.87
2017-09-20T21:01:22.509Z,74.49
2017-09-20T21:02:31.343Z,74.58
2017-09-20T21:03:40.356Z,74.4
2017-09-20T21:04:49.186Z,74.49
2017-09-20T21:05:58.022Z,74.2
2017-09-20T21:07:06.861Z,74.77
2017-09-20T21:08:15.699Z,74.4
2017-09-20T21:09:24.534Z,74.49
2017-09-20T21:10:33.369Z,74.2
2017-09-20T21:11:42.236Z,74.3
2017-09-20T21:12:51.206Z,74.87
2017-09-20T21:14:00.102Z,74.68
2017-09-20T21:15:09.265Z,75.26
2017-09-20T21:16:18.500Z,74.97
2017-09-20T21:17:27.348Z,74.49
2017-09-20T21:18:36.466Z,74.68
2017-09-20T21:19:45.337Z,74.4
2017-09-20T21:20:54.174Z,74.4
2017-09-20T21:22:03.013Z,74.87
2017-09-20T21:23:11.852Z,74.87
2017-09-20T21:24:20.689Z,74.87
2017-09-20T21:25:29.526Z,74.68
2017-09-20T21:26:38.368Z,74.77
2017-09-20T21:27:47.568Z,74.77
2017-09-20T21:28:56.405Z,74.87
2017-09-20T21:30:05.242Z,74.68
2017-09-20T21:31:14.089Z,74.77
2017-09-20T21:32:22.946Z,74.68
2017-09-20T21:33:31.783Z,75.26
2017-09-20T21:34:40.619Z,75.16
2017-09-20T21:35:49.571Z,75.07
2017-09-20T21:36:58.596Z,75.26
2017-09-20T21:38:07.591Z,74.97
2017-09-20T21:39:16.428Z,74.87
2017-09-20T21:40:25.259Z,75.07
2017-09-20T21:41:34.099Z,75.07
2017-09-20T21:42:42.939Z,74.87
2017-09-20T21:43:51.776Z,74.87
2017-09-20T21:45:00.614Z,75.26
2017-09-20T21:46:09.447Z,75.45
2017-09-20T21:47:18.288Z,75.45
2017-09-20T21:48:27.124Z,75.45
2017-09-20T21:49:35.965Z,75.35
2017-09-20T21:50:44.886Z,75.93
2017-09-20T21:51:53.721Z,75.93
2017-09-20T21:53:02.586Z,76.02
2017-09-20T21:54:11.430Z,75.93
2017-09-20T21:55:20.370Z,76.02
2017-09-20T21:56:29.258Z,75.93
2017-09-20T21:57:38.579Z,76.02
2017-09-20T21:58:47.417Z,76.02
2017-09-20T21:59:56.300Z,75.73
2017-09-20T22:01:05.526Z,75.73
2017-09-20T22:02:14.393Z,75.73
2017-09-20T22:03:23.231Z,75.73
2017-09-20T22:04:32.069Z,75.73
2017-09-20T22:05:41.227Z,75.83
2017-09-20T22:06:50.062Z,75.83
2017-09-20T22:07:58.901Z,75.54
2017-09-20T22:09:07.871Z,75.93
2017-09-20T22:10:16.732Z,76.02
2017-09-20T22:11:25.642Z,75.93
2017-09-20T22:12:34.477Z,75.73
2017-09-20T22:13:43.312Z,75.83
2017-09-20T22:14:52.150Z,75.93
2017-09-20T22:16:01.062Z,76.12
2017-09-20T22:17:09.896Z,75.93
2017-09-20T22:18:18.743Z,75.93
2017-09-20T22:19:27.703Z,75.93
2017-09-20T22:20:36.540Z,76.5
2017-09-20T22:21:45.379Z,76.12
2017-09-20T22:22:54.233Z,76.12
2017-09-20T22:24:03.715Z,76.5
2017-09-20T22:25:12.553Z,76.21
2017-09-20T22:26:21.395Z,76.12
2017-09-20T22:27:30.554Z,76.18
2017-09-20T22:28:39.715Z,76.5
2017-09-20T22:29:48.878Z,76.21
2017-09-20T22:30:57.716Z,76.12
2017-09-20T22:32:06.556Z,76.21
2017-09-20T22:33:15.768Z,76.02
2017-09-20T22:34:24.688Z,76.5
2017-09-20T22:35:33.525Z,76.4
2017-09-20T22:36:42.424Z,76.21
2017-09-20T22:37:51.263Z,76.21
2017-09-20T22:39:00.179Z,76.4
2017-09-20T22:40:09.067Z,76.4
2017-09-20T22:41:18.338Z,76.5
2017-09-20T22:42:27.280Z,76.5
2017-09-20T22:43:36.438Z,76.18
2017-09-20T22:44:45.293Z,76.21
2017-09-20T22:45:54.193Z,76.6
2017-09-20T22:47:03.031Z,76.6
2017-09-20T22:48:11.866Z,76.65
2017-09-20T22:49:20.769Z,76.65
2017-09-20T22:50:29.652Z,76.65
2017-09-20T22:51:38.651Z,76.75
2017-09-20T22:52:47.562Z,76.46
2017-09-20T22:53:56.511Z,76.6
2017-09-20T22:55:05.742Z,77.33
2017-09-20T22:56:14.578Z,76.75
2017-09-20T22:57:23.431Z,76.65
2017-09-20T22:58:32.266Z,76.6
2017-09-20T22:59:41.100Z,76.69
2017-09-20T23:00:49.997Z,76.56
2017-09-20T23:01:58.869Z,77.46
2017-09-20T23:03:08.187Z,76.37
2017-09-20T23:04:17.440Z,76.69
2017-09-20T23:05:26.665Z,76.65
2017-09-20T23:06:35.638Z,76.46
2017-09-20T23:07:45.022Z,76.46
2017-09-20T23:08:53.883Z,76.65
2017-09-20T23:10:02.725Z,76.84
2017-09-20T23:11:11.567Z,76.65
2017-09-20T23:12:20.515Z,76.94
2017-09-20T23:13:29.690Z,76.84
2017-09-20T23:14:38.721Z,76.84
2017-09-20T23:15:47.904Z,77.04
2017-09-20T23:16:56.743Z,76.94
2017-09-20T23:18:05.588Z,77.33
2017-09-20T23:19:14.420Z,77.33
2017-09-20T23:20:23.255Z,77.33
2017-09-20T23:21:32.094Z,77.23
2017-09-20T23:22:40.928Z,77.23
2017-09-20T23:23:49.768Z,77.7
2017-09-20T23:24:58.972Z,77.51
2017-09-20T23:26:08.127Z,77.51
2017-09-20T23:27:18.000Z,77.33
2017-09-20T23:28:26.836Z,77.61
2017-09-20T23:29:35.874Z,77.51
2017-09-20T23:30:44.916Z,77.23
2017-09-20T23:31:53.778Z,77.8
2017-09-20T23:33:03.128Z,77.99
2017-09-20T23:34:11.979Z,77.8
2017-09-20T23:35:20.815Z,77.33
2017-09-20T23:36:29.651Z,77.33
2017-09-20T23:37:38.875Z,77.42
2017-09-20T23:38:47.868Z,77.9
2017-09-20T23:39:57.143Z,77.9
2017-09-20T23:41:06.692Z,77.8
2017-09-20T23:42:15.526Z,77.61
2017-09-20T23:43:24.768Z,77.9
2017-09-20T23:44:33.665Z,77.61
2017-09-20T23:45:43.440Z,77.7
2017-09-20T23:46:52.785Z,78.28
2017-09-20T23:48:01.624Z,78.19
2017-09-20T23:49:11.115Z,78.57
2017-09-20T23:50:20.142Z,78.57
2017-09-20T23:51:29.491Z,78.19
2017-09-20T23:52:38.396Z,78.28
2017-09-20T23:53:47.457Z,78.57
2017-09-20T23:54:56.357Z,78.47
2017-09-20T23:56:05.932Z,78.47
2017-09-20T23:57:15.577Z,78.76
2017-09-20T23:58:24.740Z,78.57
2017-09-20T23:59:33.581Z,78.66
